Time;durP1;ratioP1;P1;durP2;ratioP2;P2;SDS_P1;SDS_P2;PMS_P1;PMS_P2;Temp;Humidity;BMP_temperature;BMP_pressure;BME280_temperature;BME280_humidity;BME280_pressure;Samples;Min_cycle;Max_cycle;Signal;HPM_P1;HPM_P2
2023/11/01 00:00:49;;;;;;;1.60;1.03;;;;;;;16.96;100.00;101063.63;2594216;22;20639;-72
2023/11/01 00:01:49;;;;;;;2.30;1.00;;;;;;;16.73;100.00;101027.84;2606620;22;20233;-72
2023/11/01 00:02:49;;;;;;;2.37;1.00;;;;;;;16.93;100.00;101058.97;2607520;22;20499;-72
2023/11/01 00:03:50;;;;;;;1.37;0.90;;;;;;;16.91;100.00;101063.47;2607633;22;20563;-72
2023/11/01 00:04:50;;;;;;;1.90;0.83;;;;;;;16.84;100.00;101058.94;2607094;22;20153;-72
2023/11/01 00:05:51;;;;;;;2.13;0.90;;;;;;;16.88;100.00;101073.59;2607087;22;20149;-72
2023/11/01 00:06:51;;;;;;;1.23;0.93;;;;;;;16.38;100.00;101004.13;2607399;22;20232;-72
2023/11/01 00:07:51;;;;;;;2.30;1.20;;;;;;;16.62;100.00;101045.56;2607051;22;20786;-72
2023/11/01 00:08:52;;;;;;;1.00;0.70;;;;;;;16.16;100.00;100992.25;2607602;22;20142;-73
2023/11/01 00:09:52;;;;;;;4.23;0.93;;;;;;;16.95;100.00;101117.31;2607590;22;20236;-73
2023/11/01 00:10:53;;;;;;;1.87;1.00;;;;;;;16.87;100.00;101116.03;2594065;22;20620;-72
2023/11/01 00:11:53;;;;;;;4.90;0.90;;;;;;;16.40;100.00;101046.41;2593681;22;20613;-73
2023/11/01 00:12:53;;;;;;;2.50;1.10;;;;;;;16.94;100.00;101115.72;2606754;22;20147;-72
2023/11/01 00:13:54;;;;;;;1.50;0.90;;;;;;;16.64;100.00;101072.59;2607544;22;20228;-72
2023/11/01 00:14:54;;;;;;;2.40;1.00;;;;;;;16.67;100.00;101096.88;2607723;22;20486;-72
2023/11/01 00:15:55;;;;;;;2.13;0.67;;;;;;;16.91;100.00;101125.06;2607129;22;20470;-72
2023/11/01 00:16:55;;;;;;;1.40;0.90;;;;;;;16.74;100.00;101098.56;2607252;22;20152;-72
2023/11/01 00:17:56;;;;;;;3.10;0.70;;;;;;;16.91;100.00;101108.28;2607166;22;20150;-72
2023/11/01 00:18:56;;;;;;;2.03;1.10;;;;;;;16.85;100.00;101110.88;2607182;22;20142;-72
2023/11/01 00:19:57;;;;;;;2.30;0.80;;;;;;;16.88;100.00;101109.97;2607502;22;20144;-72
2023/11/01 00:20:57;;;;;;;0.77;0.53;;;;;;;16.89;100.00;101110.72;2607624;22;20154;-72
2023/11/01 00:21:58;;;;;;;3.43;1.00;;;;;;;16.86;100.00;101111.69;2607615;22;20144;-72
2023/11/01 00:22:58;;;;;;;1.07;0.57;;;;;;;16.86;100.00;101111.69;2606504;22;20145;-72
2023/11/01 00:23:59;;;;;;;2.90;1.10;;;;;;;16.48;100.00;101044.09;2607499;22;20229;-72
2023/11/01 00:25:00;;;;;;;2.20;0.80;;;;;;;16.78;100.00;101091.59;2607471;22;20503;-72
2023/11/01 00:26:00;;;;;;;1.63;0.80;;;;;;;16.83;100.00;101098.59;2606943;22;20612;-72
2023/11/01 00:27:01;;;;;;;3.47;1.00;;;;;;;16.89;100.00;101108.72;2607276;22;20993;-72
2023/11/01 00:28:01;;;;;;;2.87;0.90;;;;;;;16.88;100.00;101101.56;2607115;22;20151;-72
2023/11/01 00:29:02;;;;;;;2.20;0.60;;;;;;;16.85;100.00;101105.28;2607516;22;20172;-72
2023/11/01 00:30:03;;;;;;;1.70;0.83;;;;;;;16.85;100.00;101110.13;2607834;22;20149;-72
2023/11/01 00:31:04;;;;;;;1.93;0.70;;;;;;;16.84;100.00;101108.53;2607568;22;20404;-72
2023/11/01 00:32:04;;;;;;;1.00;0.80;;;;;;;16.83;100.00;101114.63;2607475;22;20154;-72
2023/11/01 00:33:05;;;;;;;1.67;0.77;;;;;;;16.87;100.00;101121.63;2606214;22;20161;-72
2023/11/01 00:34:06;;;;;;;3.47;0.87;;;;;;;16.85;100.00;101113.69;2606624;22;20151;-71
2023/11/01 00:35:06;;;;;;;1.93;0.80;;;;;;;16.77;100.00;101108.84;2607610;22;20148;-72
2023/11/01 00:36:07;;;;;;;1.47;0.83;;;;;;;16.81;100.00;101115.09;2606999;22;20214;-71
2023/11/01 00:37:08;;;;;;;3.23;1.10;;;;;;;16.79;100.00;101114.75;2607234;22;20181;-72
2023/11/01 00:38:09;;;;;;;1.87;0.70;;;;;;;16.75;100.00;101114.91;2607232;22;20595;-72
2023/11/01 00:39:10;;;;;;;0.63;0.50;;;;;;;16.75;100.00;101106.50;2607423;22;20737;-72
2023/11/01 00:40:11;;;;;;;1.20;0.80;;;;;;;16.73;100.00;101106.22;2607841;22;20238;-72
2023/11/01 00:41:11;;;;;;;3.97;1.00;;;;;;;16.71;100.00;101111.47;2607543;22;20219;-71
2023/11/01 00:42:11;;;;;;;2.10;0.93;;;;;;;16.66;100.00;101098.09;2607655;22;20602;-72
2023/11/01 00:43:12;;;;;;;1.67;0.57;;;;;;;16.68;100.00;101106.03;2606903;22;20159;-72
2023/11/01 00:44:12;;;;;;;2.00;0.87;;;;;;;16.66;100.00;101106.47;2606919;22;20179;-71
2023/11/01 00:45:13;;;;;;;2.47;0.77;;;;;;;16.65;100.00;101110.53;2607122;22;20182;-71
2023/11/01 00:46:14;;;;;;;0.90;0.60;;;;;;;16.62;100.00;101110.69;2607557;22;20152;-71
2023/11/01 00:47:15;;;;;;;5.27;1.07;;;;;;;16.19;100.00;101066.81;2607229;22;20375;-72
2023/11/01 00:48:16;;;;;;;0.63;0.60;;;;;;;16.44;100.00;101097.41;2606565;22;20491;-72
2023/11/01 00:49:16;;;;;;;2.20;0.77;;;;;;;16.56;100.00;101109.72;2607501;22;20408;-72
2023/11/01 00:50:16;;;;;;;4.10;0.73;;;;;;;16.55;100.00;101106.13;2607630;22;20203;-72
2023/11/01 00:51:17;;;;;;;1.60;0.73;;;;;;;16.48;100.00;101100.84;2607712;22;20180;-71
2023/11/01 00:52:17;;;;;;;3.10;0.83;;;;;;;16.44;100.00;101107.84;2607572;22;20148;-72
2023/11/01 00:53:18;;;;;;;1.03;0.87;;;;;;;16.39;100.00;101100.81;2607275;22;20242;-72
2023/11/01 00:54:18;;;;;;;2.80;0.80;;;;;;;16.37;100.00;101100.47;2593147;22;20165;-72
2023/11/01 00:55:18;;;;;;;0.73;0.60;;;;;;;16.32;100.00;101087.09;2593318;22;20154;-71
2023/11/01 00:56:19;;;;;;;2.27;1.40;;;;;;;16.30;100.00;101095.13;2606697;22;20148;-71
2023/11/01 00:57:19;;;;;;;1.47;0.60;;;;;;;16.24;100.00;101107.41;2607192;22;20204;-72
2023/11/01 00:58:21;;;;;;;2.50;0.90;;;;;;;16.21;100.00;101105.50;2607134;22;20161;-71
2023/11/01 00:59:21;;;;;;;1.37;0.70;;;;;;;16.19;100.00;101108.75;2593813;22;20157;-72
2023/11/01 01:00:22;;;;;;;1.03;0.70;;;;;;;15.47;100.00;100991.00;2593789;22;20413;-72
2023/11/01 01:01:23;;;;;;;2.93;0.80;;;;;;;15.48;100.00;100998.16;2607646;22;20154;-72
2023/11/01 01:02:23;;;;;;;0.80;0.67;;;;;;;16.14;100.00;101108.59;2607012;22;20151;-71
2023/11/01 01:03:23;;;;;;;1.20;0.70;;;;;;;16.07;100.00;101106.06;2607632;22;20352;-71
2023/11/01 01:04:24;;;;;;;1.40;0.80;;;;;;;15.43;100.00;100997.97;2606613;22;20154;-72
2023/11/01 01:05:24;;;;;;;1.83;0.90;;;;;;;16.09;100.00;101104.38;2606904;22;20495;-72
2023/11/01 01:06:25;;;;;;;1.50;0.70;;;;;;;16.00;100.00;101097.94;2607415;22;20146;-72
2023/11/01 01:07:26;;;;;;;3.13;1.03;;;;;;;16.03;100.00;101106.19;2607365;22;20146;-72
2023/11/01 01:08:27;;;;;;;3.37;0.90;;;;;;;15.95;100.00;101098.53;2606968;22;20153;-71
2023/11/01 01:09:27;;;;;;;0.80;0.50;;;;;;;15.99;100.00;101104.78;2607669;22;20381;-71
2023/11/01 01:10:28;;;;;;;2.87;0.83;;;;;;;16.00;100.00;101112.72;2607447;22;20291;-71
2023/11/01 01:11:28;;;;;;;0.60;0.50;;;;;;;15.99;100.00;101108.34;2607657;22;20581;-71
2023/11/01 01:12:29;;;;;;;1.70;0.70;;;;;;;15.99;100.00;101104.78;2607602;22;20155;-71
2023/11/01 01:13:29;;;;;;;2.80;0.73;;;;;;;15.96;100.00;101100.09;2607624;22;20285;-71
2023/11/01 01:14:29;;;;;;;1.07;0.60;;;;;;;15.94;100.00;101106.13;2606853;22;20657;-72
2023/11/01 01:15:30;;;;;;;1.53;0.90;;;;;;;15.91;100.00;101101.47;2592632;22;20501;-72
2023/11/01 01:16:30;;;;;;;2.30;1.00;;;;;;;15.93;100.00;101101.03;2593326;22;20192;-72
2023/11/01 01:17:31;;;;;;;2.50;0.93;;;;;;;15.94;100.00;101102.59;2593841;22;20754;-72
2023/11/01 01:18:31;;;;;;;1.30;0.80;;;;;;;15.90;100.00;101105.53;2593695;22;20514;-72
2023/11/01 01:19:32;;;;;;;1.73;0.93;;;;;;;15.90;100.00;101099.13;2607658;22;20153;-72
2023/11/01 01:20:33;;;;;;;1.00;0.60;;;;;;;15.89;100.00;101089.97;2607506;22;20155;-72
2023/11/01 01:21:33;;;;;;;1.33;0.50;;;;;;;15.87;100.00;101094.44;2607628;22;20149;-71
2023/11/01 01:22:33;;;;;;;1.47;0.80;;;;;;;15.27;100.00;101010.09;2607418;22;20151;-71
2023/11/01 01:23:34;;;;;;;3.13;1.10;;;;;;;15.78;100.00;101103.56;2607637;22;20157;-71
2023/11/01 01:24:35;;;;;;;1.20;0.90;;;;;;;15.74;100.00;101090.97;2606781;22;20244;-71
2023/11/01 01:25:35;;;;;;;1.67;0.87;;;;;;;15.71;100.00;101098.25;2606464;22;20489;-71
2023/11/01 01:26:35;;;;;;;2.77;0.90;;;;;;;15.69;100.00;101097.94;2607207;22;20197;-71
2023/11/01 01:27:36;;;;;;;2.77;1.00;;;;;;;15.66;100.00;101104.44;2607126;22;20216;-71
2023/11/01 01:28:37;;;;;;;2.07;0.63;;;;;;;15.66;100.00;101098.84;2607407;22;20196;-72
2023/11/01 01:29:37;;;;;;;1.70;0.80;;;;;;;15.67;100.00;101096.84;2607576;22;20552;-73
2023/11/01 01:30:38;;;;;;;2.00;0.67;;;;;;;15.66;100.00;101096.03;2607035;22;20174;-73
2023/11/01 01:31:38;;;;;;;0.60;0.60;;;;;;;15.65;100.00;101082.53;2607512;22;20146;-72
2023/11/01 01:32:38;;;;;;;2.03;1.10;;;;;;;15.70;100.00;101095.91;2607550;22;20157;-71
2023/11/01 01:33:39;;;;;;;1.63;0.90;;;;;;;15.66;100.00;101093.25;2607703;22;20150;-72
2023/11/01 01:34:39;;;;;;;1.43;0.87;;;;;;;15.66;100.00;101104.44;2606996;22;20154;-71
2023/11/01 01:35:40;;;;;;;2.80;0.80;;;;;;;15.64;100.00;101101.31;2606517;22;20225;-72
2023/11/01 01:36:40;;;;;;;1.80;0.77;;;;;;;15.62;100.00;101097.41;2606818;22;20157;-72
2023/11/01 01:37:40;;;;;;;2.60;0.80;;;;;;;15.59;100.00;101104.69;2607030;22;20174;-71
2023/11/01 01:38:41;;;;;;;1.60;0.90;;;;;;;15.57;100.00;101100.81;2607394;22;20154;-71
2023/11/01 01:39:41;;;;;;;1.77;0.80;;;;;;;15.56;100.00;101100.00;2593990;22;20230;-71
2023/11/01 01:40:42;;;;;;;1.57;0.77;;;;;;;15.10;100.00;101024.69;2594171;22;20158;-71
2023/11/01 01:41:42;;;;;;;1.20;0.70;;;;;;;15.53;100.00;101106.50;2607789;22;20153;-72
2023/11/01 01:42:42;;;;;;;2.30;0.63;;;;;;;15.52;100.00;101104.94;2607281;22;20151;-73
2023/11/01 01:43:43;;;;;;;1.40;0.70;;;;;;;15.53;100.00;101088.97;2608461;22;20150;-71
2023/11/01 01:44:43;;;;;;;0.90;0.63;;;;;;;15.54;100.00;101098.91;2608131;22;20229;-72
2023/11/01 01:46:07;;;;;;;1.83;0.87;;;;;;;15.55;100.00;101106.84;2606078;22;20153;-72
2023/11/01 01:47:08;;;;;;;1.50;0.90;;;;;;;15.56;100.00;101102.00;2607558;22;20656;-72
2023/11/01 01:48:08;;;;;;;0.93;0.80;;;;;;;14.73;100.00;100980.97;2594230;22;20508;-72
2023/11/01 01:49:11;;;;;;;1.97;0.97;;;;;;;15.51;100.00;101111.75;2594356;22;20382;-72
2023/11/01 01:50:12;;;;;;;2.33;0.70;;;;;;;15.51;100.00;101117.34;2608461;22;20585;-71
2023/11/01 01:51:13;;;;;;;1.87;1.00;;;;;;;14.63;100.00;100987.69;2608342;22;20518;-71
2023/11/01 01:52:14;;;;;;;1.77;0.77;;;;;;;15.40;100.00;101111.38;2608205;22;20428;-71
2023/11/01 01:53:15;;;;;;;1.37;0.87;;;;;;;15.36;100.00;101135.09;2608189;22;20456;-71
2023/11/01 01:54:16;;;;;;;1.27;0.73;;;;;;;15.34;100.00;101109.59;2608300;22;20434;-71
2023/11/01 01:55:17;;;;;;;2.00;0.80;;;;;;;15.30;100.00;101092.97;2607533;22;20157;-71
2023/11/01 01:56:19;;;;;;;1.60;0.90;;;;;;;15.35;100.00;101105.56;2608102;22;20161;-71
2023/11/01 01:57:27;;;;;;;2.77;1.10;;;;;;;15.33;100.00;101110.84;2607402;22;20188;-71
2023/11/01 01:58:30;;;;;;;0.93;0.70;;;;;;;15.23;100.00;101092.44;2607674;22;20361;-71
2023/11/01 01:59:31;;;;;;;1.10;0.60;;;;;;;15.33;100.00;101113.63;2607656;22;20383;-71
2023/11/01 02:00:33;;;;;;;2.87;0.87;;;;;;;15.34;100.00;101121.56;2608094;22;20409;-71
2023/11/01 02:01:35;;;;;;;2.83;0.90;;;;;;;15.32;100.00;101123.22;2608470;22;20151;-71
2023/11/01 02:02:36;;;;;;;1.20;0.60;;;;;;;15.33;100.00;101122.00;2608160;22;20915;-71
2023/11/01 02:03:36;;;;;;;1.63;0.77;;;;;;;15.31;100.00;101122.44;2608268;22;20797;-71
2023/11/01 02:04:37;;;;;;;0.67;0.60;;;;;;;15.31;100.00;101124.47;2608161;22;20147;-71
2023/11/01 02:05:38;;;;;;;2.00;1.10;;;;;;;15.29;100.00;101126.91;2607465;22;20146;-71
2023/11/01 02:06:39;;;;;;;1.00;0.77;;;;;;;15.28;100.00;101128.16;2607681;22;20195;-71
2023/11/01 02:07:40;;;;;;;2.00;0.73;;;;;;;15.27;100.00;101137.75;2607021;22;20373;-71
2023/11/01 02:08:40;;;;;;;2.17;0.80;;;;;;;14.74;100.00;101052.28;2608391;22;20426;-71
2023/11/01 02:09:41;;;;;;;2.13;0.83;;;;;;;15.30;100.00;101136.84;2608375;22;20147;-71
2023/11/01 02:10:41;;;;;;;1.07;0.60;;;;;;;15.29;100.00;101130.50;2608119;22;20188;-71
2023/11/01 02:11:43;;;;;;;1.63;0.80;;;;;;;15.17;100.00;101111.00;2608275;22;20210;-71
2023/11/01 02:12:43;;;;;;;1.03;0.63;;;;;;;15.27;100.00;101124.56;2608229;22;20239;-71
2023/11/01 02:13:44;;;;;;;0.57;0.50;;;;;;;15.27;100.00;101126.59;2594005;22;20867;-71
2023/11/01 02:14:45;;;;;;;1.80;0.80;;;;;;;15.25;100.00;101123.44;2594833;22;20155;-72
2023/11/01 02:15:46;;;;;;;0.83;0.70;;;;;;;15.24;100.00;101124.69;2607755;22;20369;-72
2023/11/01 02:16:46;;;;;;;5.00;0.83;;;;;;;15.24;100.00;101128.28;2607490;22;20152;-71
2023/11/01 02:17:47;;;;;;;1.00;0.67;;;;;;;15.23;100.00;101123.94;2606923;22;20264;-73
2023/11/01 02:18:47;;;;;;;3.27;0.70;;;;;;;15.23;100.00;101125.94;2608098;22;20146;-72
2023/11/01 02:19:48;;;;;;;1.03;0.70;;;;;;;15.22;100.00;101127.94;2608102;22;20228;-72
2023/11/01 02:20:49;;;;;;;0.97;0.67;;;;;;;15.20;100.00;101124.81;2608201;22;20199;-71
2023/11/01 02:21:49;;;;;;;1.07;0.73;;;;;;;15.20;100.00;101129.63;2608180;22;20597;-71
2023/11/01 02:22:49;;;;;;;0.50;0.40;;;;;;;15.18;100.00;101124.50;2608085;22;20686;-72
2023/11/01 02:23:51;;;;;;;1.20;0.87;;;;;;;15.17;100.00;101127.75;2608071;22;20155;-72
2023/11/01 02:24:53;;;;;;;1.00;0.70;;;;;;;15.04;100.00;101104.66;2607794;22;20191;-75
2023/11/01 02:25:55;;;;;;;0.67;0.50;;;;;;;15.01;100.00;101102.78;2607493;22;20467;-75
2023/11/01 02:26:56;;;;;;;1.40;0.93;;;;;;;14.85;100.00;101077.81;2607331;22;20378;-74
2023/11/01 02:27:56;;;;;;;1.67;0.87;;;;;;;15.12;100.00;101123.50;2606659;22;20377;-74
2023/11/01 02:28:57;;;;;;;0.90;0.53;;;;;;;15.09;100.00;101121.63;2607365;22;20188;-74
2023/11/01 02:29:57;;;;;;;1.40;0.67;;;;;;;14.93;100.00;101104.25;2608110;22;20145;-72
2023/11/01 02:30:58;;;;;;;0.87;0.50;;;;;;;15.06;100.00;101116.16;2608076;22;20183;-72
2023/11/01 02:31:58;;;;;;;0.60;0.50;;;;;;;15.07;100.00;101120.50;2608119;22;20149;-72
2023/11/01 02:32:58;;;;;;;1.50;0.90;;;;;;;15.06;100.00;101124.53;2608070;22;20146;-72
2023/11/01 02:33:59;;;;;;;0.93;0.57;;;;;;;15.03;100.00;101129.00;2608110;22;20171;-71
2023/11/01 02:35:00;;;;;;;0.80;0.70;;;;;;;14.92;100.00;101102.69;2608097;22;20543;-72
2023/11/01 02:36:00;;;;;;;1.30;0.60;;;;;;;15.00;100.00;101117.94;2607333;22;20156;-71
2023/11/01 02:37:01;;;;;;;1.53;0.70;;;;;;;14.97;100.00;101119.63;2607223;22;20146;-71
2023/11/01 02:38:01;;;;;;;0.80;0.50;;;;;;;14.98;100.00;101120.41;2607759;22;20225;-72
2023/11/01 02:39:02;;;;;;;1.53;0.70;;;;;;;14.97;100.00;101108.47;2607407;22;20421;-71
2023/11/01 02:40:03;;;;;;;3.57;0.77;;;;;;;14.96;100.00;101120.84;2608164;22;20672;-74
2023/11/01 02:41:03;;;;;;;0.80;0.60;;;;;;;14.96;100.00;101120.84;2608098;22;20675;-74
2023/11/01 02:42:04;;;;;;;1.50;0.90;;;;;;;14.95;100.00;101115.72;2607879;22;20621;-74
2023/11/01 02:43:04;;;;;;;0.70;0.53;;;;;;;14.95;100.00;101124.88;2607666;22;20158;-74
2023/11/01 02:44:08;;;;;;;1.60;0.90;;;;;;;15.00;100.00;101118.72;2608117;22;20154;-74
2023/11/01 02:45:10;;;;;;;1.87;0.60;;;;;;;14.76;100.00;101083.31;2607849;22;20146;-74
2023/11/01 02:46:11;;;;;;;1.67;0.80;;;;;;;14.78;100.00;101092.78;2607872;22;20381;-74
2023/11/01 02:47:11;;;;;;;1.07;0.67;;;;;;;14.93;100.00;101110.63;2607069;22;20377;-74
2023/11/01 02:48:11;;;;;;;2.97;0.77;;;;;;;14.92;100.00;101109.06;2607733;22;20604;-74
2023/11/01 02:49:12;;;;;;;5.33;0.80;;;;;;;14.93;100.00;101115.41;2607345;22;20636;-74
2023/11/01 02:50:15;;;;;;;1.23;0.83;;;;;;;14.91;100.00;101113.06;2608104;22;20494;-74
2023/11/01 02:51:17;;;;;;;1.30;0.80;;;;;;;14.89;100.00;101109.94;2594708;22;20588;-74
2023/11/01 02:52:17;;;;;;;2.17;0.83;;;;;;;14.89;100.00;101123.09;2594662;22;20392;-74
2023/11/01 02:53:17;;;;;;;1.87;0.73;;;;;;;14.88;100.00;101127.94;2608063;22;20462;-74
2023/11/01 02:54:18;;;;;;;1.00;0.70;;;;;;;14.86;100.00;101121.22;2607749;22;20147;-74
2023/11/01 02:55:18;;;;;;;0.90;0.70;;;;;;;14.27;100.00;101048.66;2607158;22;20174;-74
2023/11/01 02:56:22;;;;;;;2.50;0.90;;;;;;;14.82;100.00;101118.56;2608056;22;20614;-74
2023/11/01 02:57:22;;;;;;;0.63;0.50;;;;;;;14.16;100.00;101023.91;2606137;22;20243;-74
2023/11/01 02:58:23;;;;;;;1.07;0.60;;;;;;;14.76;100.00;101123.13;2607647;22;20415;-74
2023/11/01 02:59:24;;;;;;;0.87;0.60;;;;;;;14.80;100.00;101126.59;2607992;22;20178;-74
2023/11/01 03:00:24;;;;;;;6.23;0.80;;;;;;;14.81;100.00;101132.97;2607381;22;20377;-74
2023/11/01 03:01:26;;;;;;;2.63;0.57;;;;;;;14.77;100.00;101130.28;2608058;22;20177;-74
2023/11/01 03:02:26;;;;;;;1.13;0.50;;;;;;;14.78;100.00;101129.06;2607849;22;20502;-74
2023/11/01 03:03:28;;;;;;;0.80;0.70;;;;;;;14.78;100.00;101126.25;2608029;22;20402;-74
2023/11/01 03:04:29;;;;;;;0.60;0.50;;;;;;;14.79;100.00;101129.81;2607880;22;20151;-74
2023/11/01 03:05:29;;;;;;;1.47;0.70;;;;;;;14.74;100.00;101119.22;2607581;22;20454;-74
2023/11/01 03:06:30;;;;;;;0.80;0.70;;;;;;;14.75;100.00;101132.72;2607736;22;20161;-74
2023/11/01 03:07:31;;;;;;;0.90;0.73;;;;;;;14.67;100.00;101136.22;2607659;22;20643;-74
2023/11/01 03:08:31;;;;;;;2.67;0.87;;;;;;;14.71;100.00;101134.09;2607361;22;20173;-74
2023/11/01 03:09:31;;;;;;;1.70;0.63;;;;;;;14.70;100.00;101138.13;2608015;22;20143;-74
2023/11/01 03:10:32;;;;;;;1.70;1.00;;;;;;;14.70;100.00;101135.31;2607236;22;20146;-74
2023/11/01 03:11:32;;;;;;;0.90;0.60;;;;;;;14.69;100.00;101139.31;2607690;22;20149;-74
2023/11/01 03:12:33;;;;;;;1.57;0.80;;;;;;;14.65;100.00;101139.44;2607879;22;20225;-75
2023/11/01 03:13:33;;;;;;;0.63;0.63;;;;;;;14.65;100.00;101147.03;2608049;22;20151;-72
2023/11/01 03:14:36;;;;;;;2.87;0.70;;;;;;;14.59;100.00;101132.06;2607734;22;20151;-72
2023/11/01 03:15:37;;;;;;;2.13;0.73;;;;;;;14.64;100.00;101140.66;2607482;22;20153;-71
2023/11/01 03:16:38;;;;;;;1.97;0.80;;;;;;;14.60;100.00;101134.41;2607537;22;20865;-72
2023/11/01 03:17:39;;;;;;;0.90;0.60;;;;;;;14.68;100.00;101143.34;2607350;22;20174;-72
2023/11/01 03:18:39;;;;;;;2.73;0.73;;;;;;;14.35;100.00;101100.97;2607509;22;20893;-71
2023/11/01 03:19:40;;;;;;;0.87;0.60;;;;;;;14.65;100.00;101141.47;2608061;22;20154;-71
2023/11/01 03:20:40;;;;;;;0.80;0.67;;;;;;;14.64;100.00;101145.47;2606597;22;20150;-71
2023/11/01 03:21:41;;;;;;;1.97;0.77;;;;;;;14.63;100.00;101141.91;2607774;22;20173;-72
2023/11/01 03:22:42;;;;;;;1.43;0.90;;;;;;;14.62;100.00;101143.13;2608056;22;20146;-72
2023/11/01 03:23:42;;;;;;;0.93;0.63;;;;;;;14.68;100.00;101146.13;2607944;22;20850;-71
2023/11/01 03:24:43;;;;;;;1.40;0.80;;;;;;;14.52;100.00;101119.16;2593881;22;20605;-73
2023/11/01 03:25:43;;;;;;;1.13;0.73;;;;;;;14.03;100.00;101034.25;2593570;22;20178;-74
2023/11/01 03:26:44;;;;;;;1.17;0.70;;;;;;;14.72;100.00;101149.59;2607738;22;20229;-74
2023/11/01 03:27:44;;;;;;;1.63;0.90;;;;;;;14.71;100.00;101143.22;2607510;22;20222;-74
2023/11/01 03:28:45;;;;;;;0.83;0.60;;;;;;;14.69;100.00;101145.69;2607343;22;20142;-74
2023/11/01 03:29:45;;;;;;;0.50;0.50;;;;;;;14.48;100.00;101121.28;2608034;22;20213;-74
2023/11/01 03:30:45;;;;;;;0.90;0.50;;;;;;;14.59;100.00;101144.03;2607748;22;20146;-74
2023/11/01 03:31:46;;;;;;;1.47;0.80;;;;;;;14.52;100.00;101146.25;2607557;22;20277;-74
2023/11/01 03:32:47;;;;;;;7.03;0.80;;;;;;;14.52;100.00;101151.81;2607935;22;20280;-72
2023/11/01 03:33:47;;;;;;;1.20;0.67;;;;;;;14.54;100.00;101143.78;2607823;22;20449;-71
2023/11/01 03:34:48;;;;;;;2.03;0.80;;;;;;;13.97;100.00;101060.34;2594212;22;20185;-74
2023/11/01 03:35:48;;;;;;;0.87;0.70;;;;;;;14.42;100.00;101139.78;2593200;22;20506;-74
2023/11/01 03:36:49;;;;;;;1.67;0.90;;;;;;;14.48;100.00;101145.56;2607505;22;20151;-74
2023/11/01 03:37:49;;;;;;;3.43;0.83;;;;;;;14.53;100.00;101147.81;2607327;22;20178;-74
2023/11/01 03:38:50;;;;;;;1.23;0.90;;;;;;;14.45;100.00;101138.88;2607199;22;20150;-74
2023/11/01 03:39:50;;;;;;;1.47;1.10;;;;;;;14.50;100.00;101143.91;2606888;22;20182;-74
2023/11/01 03:40:51;;;;;;;2.67;0.90;;;;;;;14.49;100.00;101147.94;2607771;22;20170;-74
2023/11/01 03:41:51;;;;;;;4.03;1.00;;;;;;;14.47;100.00;101139.25;2607080;22;20143;-74
2023/11/01 03:42:52;;;;;;;1.60;0.80;;;;;;;14.44;100.00;101148.47;2607841;22;20227;-74
2023/11/01 03:43:52;;;;;;;1.60;1.00;;;;;;;14.44;100.00;101153.28;2607715;22;20143;-74
2023/11/01 03:44:53;;;;;;;1.60;1.10;;;;;;;14.43;100.00;101152.50;2607832;22;20150;-74
2023/11/01 03:45:53;;;;;;;1.13;0.80;;;;;;;14.44;100.00;101156.84;2607366;22;20174;-74
2023/11/01 03:46:53;;;;;;;2.57;1.17;;;;;;;13.98;100.00;101103.72;2607336;22;20143;-74
2023/11/01 03:47:54;;;;;;;1.80;1.17;;;;;;;14.44;100.00;101170.78;2593607;22;20163;-74
2023/11/01 03:48:54;;;;;;;1.53;1.10;;;;;;;14.46;100.00;101170.34;2593760;22;20152;-72
2023/11/01 03:49:55;;;;;;;2.57;1.07;;;;;;;13.72;100.00;101060.31;2607888;22;20154;-71
2023/11/01 03:50:55;;;;;;;1.10;0.90;;;;;;;14.39;100.00;101162.22;2607750;22;20220;-71
2023/11/01 03:51:57;;;;;;;1.07;0.93;;;;;;;14.40;100.00;101164.53;2607331;22;20157;-73
2023/11/01 03:52:59;;;;;;;3.17;1.40;;;;;;;14.14;100.00;101118.31;2607465;22;20468;-72
2023/11/01 03:53:59;;;;;;;6.17;1.40;;;;;;;14.07;100.00;101115.75;2607145;22;20377;-72
2023/11/01 03:55:00;;;;;;;1.67;1.27;;;;;;;14.51;100.00;101180.94;2607724;22;20430;-71
2023/11/01 03:56:03;;;;;;;1.33;1.00;;;;;;;14.35;100.00;101150.38;2607334;22;20686;-71
2023/11/01 03:57:04;;;;;;;1.50;1.10;;;;;;;14.48;100.00;101179.03;2607395;22;20177;-71
2023/11/01 03:58:04;;;;;;;3.10;1.40;;;;;;;14.40;100.00;101183.28;2607447;22;20438;-72
2023/11/01 03:59:05;;;;;;;2.03;1.23;;;;;;;14.36;100.00;101190.97;2607382;22;20385;-72
2023/11/01 04:00:07;;;;;;;3.60;1.43;;;;;;;14.37;100.00;101189.75;2607645;22;20427;-71
2023/11/01 04:01:07;;;;;;;1.97;1.23;;;;;;;14.34;100.00;101191.41;2593974;22;20162;-72
2023/11/01 04:02:08;;;;;;;1.53;1.17;;;;;;;14.30;100.00;101185.16;2581679;23;20394;-72
2023/11/01 04:03:09;;;;;;;2.20;1.20;;;;;;;14.19;100.00;101156.81;2593620;22;20522;-71
2023/11/01 04:04:10;;;;;;;1.80;1.00;;;;;;;13.71;100.00;101092.97;2607966;22;20377;-71
2023/11/01 04:05:10;;;;;;;2.00;0.90;;;;;;;13.56;100.00;101060.38;2607358;22;20381;-71
2023/11/01 04:06:11;;;;;;;1.97;1.10;;;;;;;14.25;100.00;101179.38;2607644;22;20146;-72
2023/11/01 04:07:11;;;;;;;2.93;1.50;;;;;;;14.22;100.00;101188.59;2607383;22;20151;-72
2023/11/01 04:08:12;;;;;;;1.73;1.10;;;;;;;14.19;100.00;101181.13;2606665;22;20156;-72
2023/11/01 04:09:12;;;;;;;1.83;1.20;;;;;;;14.18;100.00;101183.13;2607217;22;20157;-71
2023/11/01 04:10:13;;;;;;;2.07;1.13;;;;;;;13.49;100.00;101080.09;2607303;22;20146;-71
2023/11/01 04:11:13;;;;;;;3.43;1.27;;;;;;;14.12;100.00;101184.88;2607708;22;20173;-73
2023/11/01 04:12:14;;;;;;;2.50;1.33;;;;;;;14.10;100.00;101183.78;2607858;22;20178;-74
2023/11/01 04:13:14;;;;;;;1.47;1.03;;;;;;;14.08;100.00;101189.00;2606943;22;20500;-73
2023/11/01 04:14:15;;;;;;;2.90;1.20;;;;;;;14.05;100.00;101178.75;2607705;22;20146;-74
2023/11/01 04:15:16;;;;;;;2.00;1.23;;;;;;;14.00;100.00;101184.84;2607004;22;20229;-74
2023/11/01 04:16:16;;;;;;;2.00;1.27;;;;;;;14.02;100.00;101188.75;2607703;22;20153;-74
2023/11/01 04:17:18;;;;;;;2.50;1.43;;;;;;;14.06;100.00;101178.31;2607362;22;20453;-74
2023/11/01 04:18:19;;;;;;;1.57;1.20;;;;;;;13.98;100.00;101192.88;2607380;22;20246;-74
2023/11/01 04:19:19;;;;;;;1.60;1.40;;;;;;;13.99;100.00;101174.94;2607645;22;20373;-74
2023/11/01 04:20:20;;;;;;;2.77;1.60;;;;;;;14.05;100.00;101187.09;2607256;22;20233;-73
2023/11/01 04:21:20;;;;;;;2.70;1.40;;;;;;;14.10;100.00;101189.34;2607654;22;20229;-74
2023/11/01 04:22:21;;;;;;;1.50;1.10;;;;;;;14.12;100.00;101198.81;2607633;22;20170;-74
2023/11/01 04:23:22;;;;;;;2.87;1.47;;;;;;;14.04;100.00;101180.72;2606926;22;20154;-74
2023/11/01 04:24:23;;;;;;;2.00;1.57;;;;;;;14.06;100.00;101194.22;2607049;22;20207;-74
2023/11/01 04:25:24;;;;;;;4.00;1.67;;;;;;;14.01;100.00;101198.34;2607192;22;20134;-74
2023/11/01 04:26:24;;;;;;;2.57;1.70;;;;;;;14.06;100.00;101197.81;2607528;22;20397;-74
2023/11/01 04:27:25;;;;;;;2.80;1.40;;;;;;;14.08;100.00;101209.28;2607516;22;20495;-74
2023/11/01 04:28:25;;;;;;;2.43;1.30;;;;;;;14.05;100.00;101201.81;2607342;22;20560;-74
2023/11/01 04:29:26;;;;;;;1.83;1.40;;;;;;;14.02;100.00;101207.47;2607945;22;20181;-74
2023/11/01 04:32:28;;;;;;;5.47;2.47;;;;;;;13.95;100.00;101221.63;2600086;22;20146;-74
2023/11/01 04:33:28;;;;;;;4.10;2.20;;;;;;;13.90;100.00;101224.94;2605294;22;20363;-74
2023/11/01 04:34:29;;;;;;;2.43;1.70;;;;;;;13.90;100.00;101224.94;2606547;22;20911;-74
2023/11/01 04:35:29;;;;;;;4.40;2.30;;;;;;;13.87;100.00;101223.03;2607199;22;20603;-74
2023/11/01 04:36:29;;;;;;;2.30;1.67;;;;;;;12.73;100.00;101053.91;2607344;22;20146;-74
2023/11/01 04:37:30;;;;;;;3.70;2.10;;;;;;;13.78;100.00;101225.69;2607728;22;20702;-72
2023/11/01 04:38:31;;;;;;;4.20;2.03;;;;;;;13.80;100.00;101231.59;2607199;22;20168;-71
2023/11/01 04:39:31;;;;;;;3.83;2.27;;;;;;;13.82;100.00;101221.56;2607857;22;20588;-71
2023/11/01 04:40:32;;;;;;;3.87;2.00;;;;;;;13.43;100.00;101168.16;2607025;22;20170;-71
2023/11/01 04:41:32;;;;;;;5.33;1.97;;;;;;;13.87;100.00;101225.81;2607670;22;20184;-71